createdAt,value
2024-02-09T00:04:02.000Z,27
2024-02-09T00:10:02.000Z,11
2024-02-09T00:16:02.000Z,12
2024-02-09T00:22:02.000Z,15
2024-02-09T00:28:02.000Z,12
2024-02-09T00:34:02.000Z,16
2024-02-09T00:40:02.000Z,25
2024-02-09T00:46:02.000Z,13
2024-02-09T00:52:02.000Z,22
2024-02-09T00:58:02.000Z,10
2024-02-09T01:04:02.000Z,28
2024-02-09T01:10:02.000Z,15
2024-02-09T01:16:02.000Z,17
2024-02-09T01:22:02.000Z,18
2024-02-09T01:28:02.000Z,21
2024-02-09T01:34:02.000Z,31
2024-02-09T01:40:02.000Z,23
2024-02-09T01:46:02.000Z,33
2024-02-09T01:52:02.000Z,31
2024-02-09T01:58:02.000Z,11
2024-02-09T02:04:02.000Z,19
2024-02-09T02:10:02.000Z,20
2024-02-09T02:16:02.000Z,18
2024-02-09T02:22:02.000Z,31
2024-02-09T02:28:02.000Z,37
2024-02-09T02:34:02.000Z,21
2024-02-09T02:40:02.000Z,26
2024-02-09T02:46:02.000Z,20
2024-02-09T02:52:02.000Z,21
2024-02-09T02:58:02.000Z,26
2024-02-09T03:04:02.000Z,11
2024-02-09T03:10:03.000Z,26
2024-02-09T03:16:02.000Z,21
2024-02-09T03:22:02.000Z,29
2024-02-09T03:28:02.000Z,32
2024-02-09T03:34:02.000Z,29
2024-02-09T03:40:02.000Z,29
2024-02-09T03:46:02.000Z,27
2024-02-09T03:52:02.000Z,27
2024-02-09T03:58:02.000Z,32
2024-02-09T04:04:02.000Z,25
2024-02-09T04:10:02.000Z,24
2024-02-09T04:16:02.000Z,22
2024-02-09T04:22:02.000Z,25
2024-02-09T04:28:02.000Z,29
2024-02-09T04:34:02.000Z,19
2024-02-09T04:40:02.000Z,19
2024-02-09T04:46:02.000Z,19
2024-02-09T04:52:02.000Z,20
2024-02-09T04:58:02.000Z,18
2024-02-09T05:04:02.000Z,17
2024-02-09T05:10:02.000Z,15
2024-02-09T05:16:02.000Z,17
2024-02-09T05:22:02.000Z,20
2024-02-09T05:28:02.000Z,20
2024-02-09T05:34:02.000Z,12
2024-02-09T05:40:02.000Z,16
2024-02-09T05:46:02.000Z,12
2024-02-09T05:52:03.000Z,12
2024-02-09T05:58:02.000Z,11
2024-02-09T06:04:02.000Z,13
2024-02-09T06:10:02.000Z,11
2024-02-09T06:16:03.000Z,10
2024-02-09T06:22:02.000Z,11
2024-02-09T06:28:02.000Z,10
2024-02-09T06:34:02.000Z,12
2024-02-09T06:40:02.000Z,14
2024-02-09T06:46:02.000Z,13
2024-02-09T06:52:02.000Z,10
2024-02-09T06:58:02.000Z,8
2024-02-09T07:04:02.000Z,10
2024-02-09T07:10:02.000Z,9
2024-02-09T07:16:02.000Z,11
2024-02-09T07:22:02.000Z,8
2024-02-09T07:28:02.000Z,8
2024-02-09T07:34:03.000Z,9
2024-02-09T07:40:03.000Z,13
2024-02-09T07:46:02.000Z,9
2024-02-09T07:52:02.000Z,11
2024-02-09T07:58:02.000Z,10
2024-02-09T08:04:02.000Z,11
2024-02-09T08:10:02.000Z,10
2024-02-09T08:16:02.000Z,11
2024-02-09T08:22:02.000Z,15
2024-02-09T08:28:02.000Z,8
2024-02-09T08:34:03.000Z,9
2024-02-09T08:40:02.000Z,8
2024-02-09T08:46:02.000Z,10
2024-02-09T08:52:02.000Z,12
2024-02-09T08:58:03.000Z,14
2024-02-09T09:04:02.000Z,11
2024-02-09T09:10:02.000Z,8
2024-02-09T09:16:02.000Z,14
2024-02-09T09:22:02.000Z,7
2024-02-09T09:28:02.000Z,14
2024-02-09T09:34:02.000Z,18
2024-02-09T09:40:03.000Z,12
2024-02-09T09:46:03.000Z,7
2024-02-09T09:52:02.000Z,13
2024-02-09T09:58:02.000Z,11
2024-02-09T10:04:02.000Z,8
2024-02-09T10:10:02.000Z,16
2024-02-09T10:16:02.000Z,12
2024-02-09T10:22:02.000Z,16
2024-02-09T10:28:02.000Z,11
2024-02-09T10:34:02.000Z,13
2024-02-09T10:40:03.000Z,7
2024-02-09T10:46:02.000Z,15
2024-02-09T10:52:02.000Z,6
2024-02-09T10:58:02.000Z,6
2024-02-09T11:04:02.000Z,8
2024-02-09T11:10:02.000Z,20
2024-02-09T11:16:02.000Z,7
2024-02-09T11:22:02.000Z,6
2024-02-09T11:28:03.000Z,6
2024-02-09T11:34:03.000Z,8
